YLAO weather

Lameroo Airport
South Australia, Australia

Public forecast

Using degrees Celsius for public forecast. Weather courtesy of forecast.io.

Closest aviation weather report (METAR) to Lameroo Airport

Closest report is Mildura Airport, 102.0 nm (188.9 km) NE. Retrieved 2020/02/19 16:00 UTC (38 minutes ago):

YMIA 191600Z AUTO 16009KT 9999 // NCD 16/07 Q1014

Closest aviation forecast (TAF) to Lameroo Airport

Closest forecast is Adelaide International Airport, 102.3 nm (189.4 km) WNW. Retrieved 2020/02/19 12:00 UTC (5 hours ago):

TAF YPAD 191110Z 1912/2018 16010KT 9999 FEW035 FM192100 VRB05KT CAVOK FM200200 22014KT 9999 FEW035 FM200800 16014KT 9999 FEW035